Time;durP1;ratioP1;P1;durP2;ratioP2;P2;SDS_P1;SDS_P2;PMS_P1;PMS_P2;Temp;Humidity;BMP_temperature;BMP_pressure;BME280_temperature;BME280_humidity;BME280_pressure;Samples;Min_cycle;Max_cycle;Signal;HPM_P1;HPM_P2
2021/09/04 00:00:15;;;;;;;14.88;12.05;;;;;;;20.85;54.90;102128.78;5128052;27;20070;-75
2021/09/04 00:02:40;;;;;;;14.63;11.93;;;;;;;20.87;54.88;102124.44;5120678;27;20108;-75
2021/09/04 00:05:06;;;;;;;13.55;11.43;;;;;;;20.87;54.94;102127.03;5105239;27;20112;-73
2021/09/04 00:07:32;;;;;;;13.77;11.32;;;;;;;20.89;54.72;102121.81;5114968;28;20106;-79
2021/09/04 00:09:59;;;;;;;13.52;10.90;;;;;;;20.86;54.78;102124.41;5096787;28;20085;-79
2021/09/04 00:12:26;;;;;;;13.63;10.77;;;;;;;20.83;54.75;102112.22;5116086;27;20020;-79
2021/09/04 00:14:55;;;;;;;13.55;11.13;;;;;;;20.83;54.59;102111.34;5113317;28;20075;-78
2021/09/04 00:17:21;;;;;;;15.15;11.40;;;;;;;20.84;54.36;102113.97;5120472;27;20030;-79
2021/09/04 00:19:47;;;;;;;14.13;11.88;;;;;;;20.85;54.67;102114.84;5113304;28;20019;-79
2021/09/04 00:22:12;;;;;;;14.73;11.55;;;;;;;20.87;54.79;102110.47;5096609;28;20118;-82
2021/09/04 00:24:38;;;;;;;13.88;11.20;;;;;;;20.85;54.57;102110.47;5110784;27;20115;-79
2021/09/04 00:27:06;;;;;;;13.65;11.20;;;;;;;20.85;54.50;102112.22;5116979;28;20027;-79
2021/09/04 00:29:32;;;;;;;13.10;11.02;;;;;;;20.89;54.56;102120.06;5100610;27;20046;-82
2021/09/04 00:31:57;;;;;;;15.45;10.75;;;;;;;20.89;54.66;102119.19;5135131;27;20469;-79
2021/09/04 00:34:23;;;;;;;14.60;11.55;;;;;;;20.90;54.56;102113.94;5099610;27;20034;-80
2021/09/04 00:36:48;;;;;;;15.38;11.55;;;;;;;20.89;54.16;102112.22;5116852;27;20076;-78
2021/09/04 00:39:13;;;;;;;14.30;10.77;;;;;;;20.88;54.44;102107.88;5115311;27;20121;-79
2021/09/04 00:41:39;;;;;;;15.75;11.40;;;;;;;20.88;54.69;102112.22;5079294;28;20385;-79
2021/09/04 00:44:06;;;;;;;12.60;10.07;;;;;;;20.88;54.24;102112.22;5113031;28;20098;-80
2021/09/04 00:46:32;;;;;;;12.82;11.15;;;;;;;20.85;54.25;102109.63;5096079;28;20487;-80
2021/09/04 00:48:58;;;;;;;14.45;10.93;;;;;;;20.83;54.35;102108.75;5096145;28;20126;-77
2021/09/04 00:51:24;;;;;;;14.38;11.02;;;;;;;20.85;54.38;102109.63;5112844;28;20488;-77
2021/09/04 00:53:50;;;;;;;13.75;10.57;;;;;;;20.86;54.35;102106.09;5112907;28;20031;-79
2021/09/04 00:56:16;;;;;;;13.18;11.05;;;;;;;20.89;54.32;102106.97;5131595;27;20516;-82
2021/09/04 00:58:43;;;;;;;12.57;10.38;;;;;;;20.87;54.34;102103.50;5133797;27;20062;-82
2021/09/04 01:01:11;;;;;;;13.90;10.70;;;;;;;20.86;54.48;102112.22;5133676;27;20161;-82
2021/09/04 01:03:37;;;;;;;13.60;11.18;;;;;;;20.88;54.18;102112.22;5116552;27;20051;-84
2021/09/04 01:06:02;;;;;;;12.15;10.27;;;;;;;20.83;54.14;102104.38;5095779;28;20051;-84
2021/09/04 01:08:29;;;;;;;13.02;11.10;;;;;;;20.83;54.44;102108.75;5095742;28;20038;-79
2021/09/04 01:10:54;;;;;;;13.05;10.70;;;;;;;20.83;54.36;102104.38;5119310;27;20034;-79
2021/09/04 01:13:20;;;;;;;12.98;10.52;;;;;;;20.84;54.29;102100.91;5098845;28;20055;-79
2021/09/04 01:15:47;;;;;;;14.07;11.15;;;;;;;20.88;54.24;102096.50;5133077;28;20023;-79
2021/09/04 01:18:12;;;;;;;14.60;10.55;;;;;;;20.86;54.00;102104.38;5120099;28;20038;-80
2021/09/04 01:20:38;;;;;;;12.68;10.18;;;;;;;20.87;54.23;102100.88;5121338;28;20024;-79
2021/09/04 01:23:04;;;;;;;14.88;10.68;;;;;;;20.90;54.11;102097.38;5109181;28;20470;-78
2021/09/04 01:25:31;;;;;;;13.73;10.80;;;;;;;20.92;54.05;102090.38;5133321;28;20483;-81
2021/09/04 01:28:02;;;;;;;15.18;10.27;;;;;;;20.96;53.94;102097.34;5133371;28;20023;-85
2021/09/04 01:30:28;;;;;;;14.23;10.65;;;;;;;20.90;54.03;102090.38;5133458;27;20030;-84
2021/09/04 01:32:54;;;;;;;12.82;10.30;;;;;;;20.90;54.23;102085.16;5128813;28;20042;-85
2021/09/04 01:35:23;;;;;;;15.20;10.43;;;;;;;20.91;54.34;102081.69;5133297;27;20031;-85
2021/09/04 01:37:49;;;;;;;11.23;9.90;;;;;;;20.88;54.00;102078.19;5133362;28;20023;-82
2021/09/04 01:40:15;;;;;;;14.10;10.30;;;;;;;20.89;54.19;102086.03;5133157;28;20118;-82
2021/09/04 01:42:44;;;;;;;11.48;9.85;;;;;;;20.92;54.17;102087.78;5119035;27;20030;-83
2021/09/04 01:45:11;;;;;;;12.43;10.30;;;;;;;20.93;54.17;102081.69;5122429;28;20023;-82
2021/09/04 01:47:36;;;;;;;11.38;10.02;;;;;;;20.92;53.71;102083.41;5112419;28;20024;-84
2021/09/04 01:50:03;;;;;;;12.43;9.77;;;;;;;20.91;54.18;102086.91;5095594;28;20028;-82
2021/09/04 01:52:29;;;;;;;12.63;10.20;;;;;;;20.91;54.03;102079.06;5112237;28;20023;-84
2021/09/04 01:54:54;;;;;;;14.27;10.20;;;;;;;20.89;53.98;102080.81;5108220;28;20030;-82
2021/09/04 01:57:20;;;;;;;12.90;10.00;;;;;;;20.90;54.12;102076.44;5112439;28;20034;-84
2021/09/04 01:59:46;;;;;;;11.82;9.88;;;;;;;20.90;54.14;102084.28;5112171;28;20079;-80
2021/09/04 02:02:12;;;;;;;12.73;10.05;;;;;;;20.89;53.84;102078.19;5132963;27;20041;-82
2021/09/04 02:04:38;;;;;;;13.10;10.57;;;;;;;20.89;53.86;102078.19;5122929;27;20022;-82
2021/09/04 02:07:04;;;;;;;11.45;9.77;;;;;;;20.90;53.96;102079.06;5118989;27;20024;-82
2021/09/04 02:09:30;;;;;;;11.88;9.73;;;;;;;20.91;54.05;102068.59;5114595;27;20110;-84
2021/09/04 02:11:55;;;;;;;13.82;9.98;;;;;;;20.90;53.92;102081.69;5121748;27;20124;-82
2021/09/04 02:14:21;;;;;;;14.32;10.43;;;;;;;20.91;53.90;102070.34;5115537;28;20055;-81
2021/09/04 02:16:46;;;;;;;12.52;10.00;;;;;;;20.92;53.80;102069.47;5115817;28;20031;-82
2021/09/04 02:19:12;;;;;;;12.23;9.50;;;;;;;20.91;53.90;102070.34;5098990;28;20027;-80
2021/09/04 02:21:37;;;;;;;13.15;9.68;;;;;;;20.90;53.75;102064.22;5126869;27;20098;-82
2021/09/04 02:24:03;;;;;;;12.43;10.38;;;;;;;20.88;53.72;102062.50;5132530;27;20031;-80
2021/09/04 02:26:28;;;;;;;13.90;10.48;;;;;;;20.88;53.87;102057.25;5081962;28;20092;-82
2021/09/04 02:28:55;;;;;;;12.07;10.32;;;;;;;20.84;54.35;102059.03;5098729;28;20032;-83
2021/09/04 02:31:23;;;;;;;12.52;9.95;;;;;;;20.89;54.02;102072.09;5098841;28;20023;-82
2021/09/04 02:33:53;;;;;;;12.13;10.45;;;;;;;20.93;54.01;102068.59;5113243;27;20035;-81
2021/09/04 02:36:19;;;;;;;11.73;9.65;;;;;;;20.94;53.90;102067.72;5119058;27;20510;-82
2021/09/04 02:38:44;;;;;;;11.07;9.88;;;;;;;20.92;53.87;102072.94;5119209;27;20027;-80
2021/09/04 02:41:10;;;;;;;12.30;9.88;;;;;;;20.90;53.76;102073.81;5118471;27;20211;-82
2021/09/04 02:43:35;;;;;;;11.88;10.18;;;;;;;20.87;54.16;102068.63;5128245;27;20042;-80
2021/09/04 02:46:00;;;;;;;11.45;9.82;;;;;;;20.94;53.53;102078.19;5102069;27;20434;-83
2021/09/04 02:48:26;;;;;;;11.40;9.88;;;;;;;20.92;53.69;102070.31;5136168;27;20027;-83
2021/09/04 02:50:51;;;;;;;12.60;10.50;;;;;;;20.93;53.89;102068.59;5112210;28;20039;-83
2021/09/04 02:53:16;;;;;;;11.57;9.90;;;;;;;20.92;53.96;102072.94;5122483;27;20027;-81
2021/09/04 02:55:42;;;;;;;13.23;9.80;;;;;;;20.91;53.81;102071.22;5111688;27;20027;-80
2021/09/04 02:58:07;;;;;;;11.40;10.20;;;;;;;20.88;53.68;102067.72;5118426;27;20089;-81
2021/09/04 03:00:33;;;;;;;13.35;9.60;;;;;;;20.87;53.78;102073.84;5101565;27;20037;-81
2021/09/04 03:02:58;;;;;;;11.27;10.02;;;;;;;20.88;53.61;102063.38;5118763;27;20080;-82
2021/09/04 03:05:24;;;;;;;12.95;10.23;;;;;;;20.89;53.78;102067.72;5101516;27;20023;-79
2021/09/04 03:07:50;;;;;;;12.95;10.18;;;;;;;20.92;53.87;102067.69;5101689;27;20027;-83
2021/09/04 03:10:15;;;;;;;12.00;9.65;;;;;;;20.90;53.96;102068.59;5118357;27;20030;-76
2021/09/04 03:12:41;;;;;;;11.80;9.95;;;;;;;20.88;53.92;102067.72;5116680;27;20504;-81
2021/09/04 03:15:07;;;;;;;11.73;9.73;;;;;;;20.88;53.86;102057.25;5118630;27;20118;-83
2021/09/04 03:17:32;;;;;;;12.20;9.88;;;;;;;20.89;53.77;102061.63;5104435;28;20032;-82
2021/09/04 03:19:57;;;;;;;11.57;9.88;;;;;;;20.87;53.84;102068.63;5080961;28;20126;-79
2021/09/04 03:22:23;;;;;;;11.07;9.68;;;;;;;20.90;53.63;102064.22;5099812;27;20030;-79
2021/09/04 03:24:48;;;;;;;10.82;9.32;;;;;;;20.90;53.82;102060.75;5100805;27;20114;-76
2021/09/04 03:27:13;;;;;;;12.50;9.95;;;;;;;20.90;53.77;102072.06;5100548;27;20050;-76
2021/09/04 03:29:39;;;;;;;13.27;9.93;;;;;;;20.89;53.71;102075.56;5124510;27;20083;-74
2021/09/04 03:32:07;;;;;;;11.95;9.50;;;;;;;20.91;53.68;102071.22;5112113;27;20102;-75
2021/09/04 03:34:33;;;;;;;12.40;9.63;;;;;;;20.92;53.82;102064.22;5104310;27;20027;-75
2021/09/04 03:36:59;;;;;;;11.68;9.98;;;;;;;20.89;53.82;102065.13;5097577;28;20034;-79
2021/09/04 03:39:25;;;;;;;10.52;9.43;;;;;;;20.88;54.14;102063.38;5081001;28;20126;-78
2021/09/04 03:41:51;;;;;;;10.73;9.02;;;;;;;20.91;54.03;102059.88;5080788;28;20124;-78
2021/09/04 03:44:17;;;;;;;10.68;9.55;;;;;;;20.91;53.68;102063.38;5097603;28;20034;-78
2021/09/04 03:46:43;;;;;;;11.40;9.60;;;;;;;20.90;53.68;102060.75;5115440;27;20027;-78
2021/09/04 03:49:12;;;;;;;12.13;9.40;;;;;;;20.90;53.63;102058.13;5105343;27;20019;-78
2021/09/04 03:51:38;;;;;;;10.68;8.95;;;;;;;20.90;53.71;102058.13;5098295;28;20118;-78
2021/09/04 03:54:03;;;;;;;12.65;10.18;;;;;;;20.86;54.13;102062.53;5082120;27;20058;-78
2021/09/04 03:56:28;;;;;;;11.00;9.48;;;;;;;20.88;53.91;102057.25;5114642;28;20397;-80
2021/09/04 03:58:54;;;;;;;10.75;9.30;;;;;;;20.87;54.02;102056.41;5096999;28;20034;-79
2021/09/04 04:01:20;;;;;;;12.45;9.57;;;;;;;20.89;53.59;102048.56;5080128;28;20080;-79
2021/09/04 04:03:46;;;;;;;12.60;9.48;;;;;;;20.89;53.66;102049.41;5097014;28;20024;-79
2021/09/04 04:06:11;;;;;;;11.73;9.85;;;;;;;20.89;53.45;102045.94;5113682;28;20023;-81
2021/09/04 04:08:36;;;;;;;12.18;9.85;;;;;;;20.90;53.59;102050.28;5096848;28;20043;-83
2021/09/04 04:11:07;;;;;;;11.18;9.82;;;;;;;20.90;53.52;102048.53;5096694;28;20035;-79
2021/09/04 04:13:33;;;;;;;12.45;9.93;;;;;;;20.88;53.50;102052.03;5114742;28;20047;-81
2021/09/04 04:15:58;;;;;;;11.45;9.15;;;;;;;20.89;53.86;102049.41;5113812;28;20031;-83
2021/09/04 04:18:24;;;;;;;11.80;9.40;;;;;;;20.91;53.68;102041.56;5130540;27;20465;-79
2021/09/04 04:20:49;;;;;;;11.07;9.20;;;;;;;20.91;53.63;102049.41;5096950;28;20030;-80
2021/09/04 04:23:15;;;;;;;12.68;10.05;;;;;;;20.91;53.25;102052.03;5096465;28;20024;-80
2021/09/04 04:25:40;;;;;;;11.00;9.25;;;;;;;20.92;53.53;102061.59;5095882;28;20031;-80
2021/09/04 04:28:06;;;;;;;11.05;9.23;;;;;;;20.90;53.67;102059.00;5113501;28;20024;-80
2021/09/04 04:30:31;;;;;;;10.60;8.90;;;;;;;20.89;53.53;102056.41;5096389;28;20492;-82
2021/09/04 04:32:56;;;;;;;12.38;9.90;;;;;;;20.88;53.61;102060.78;5096275;28;20042;-78
2021/09/04 04:35:22;;;;;;;12.00;9.65;;;;;;;20.90;53.60;102058.13;5097216;27;20028;-81
2021/09/04 04:37:47;;;;;;;11.27;9.50;;;;;;;20.91;53.66;102054.66;5116843;27;20059;-82
2021/09/04 04:40:13;;;;;;;10.95;9.20;;;;;;;20.89;53.55;102057.25;5099825;27;20035;-81
2021/09/04 04:42:39;;;;;;;11.15;9.30;;;;;;;20.85;53.50;102060.75;5117199;27;20034;-81
2021/09/04 04:45:06;;;;;;;11.05;9.68;;;;;;;20.86;53.94;102061.63;5116737;27;20035;-79
2021/09/04 04:47:32;;;;;;;11.45;9.63;;;;;;;20.87;53.39;102060.75;5116544;27;20023;-79
2021/09/04 04:49:58;;;;;;;12.23;9.38;;;;;;;20.88;53.46;102070.34;5133629;27;20030;-78
2021/09/04 04:52:24;;;;;;;10.75;8.98;;;;;;;20.82;53.43;102065.13;5116303;27;20023;-76
2021/09/04 04:54:49;;;;;;;11.65;9.30;;;;;;;20.86;53.41;102061.63;5133119;27;20044;-75
2021/09/04 04:57:14;;;;;;;11.50;9.45;;;;;;;20.83;53.43;102066.88;5134785;27;20023;-76
2021/09/04 04:59:40;;;;;;;10.80;8.98;;;;;;;20.80;52.93;102061.69;5133411;27;20507;-76
2021/09/04 05:02:05;;;;;;;10.25;9.25;;;;;;;20.79;53.18;102062.53;5115521;27;20047;-76
2021/09/04 05:04:31;;;;;;;10.23;9.13;;;;;;;20.79;53.01;102067.75;5114702;27;20032;-79
2021/09/04 05:07:00;;;;;;;10.30;9.20;;;;;;;20.79;53.01;102070.38;5095525;28;20032;-78
2021/09/04 05:09:26;;;;;;;11.73;9.23;;;;;;;20.83;53.15;102075.59;5099688;28;20027;-78
2021/09/04 05:11:51;;;;;;;11.95;9.23;;;;;;;20.82;53.13;102076.47;5115739;27;20084;-78
2021/09/04 05:14:16;;;;;;;11.10;9.70;;;;;;;20.85;52.92;102083.44;5121732;27;20047;-76
2021/09/04 05:16:42;;;;;;;9.55;8.45;;;;;;;20.86;53.29;102090.41;5111399;28;20019;-76
2021/09/04 05:19:07;;;;;;;10.55;9.18;;;;;;;20.87;53.28;102082.56;5112403;28;20439;-74
2021/09/04 05:21:33;;;;;;;10.68;8.82;;;;;;;20.86;53.28;102091.31;5079065;28;20026;-75
2021/09/04 05:23:59;;;;;;;10.07;9.02;;;;;;;20.89;53.08;102086.03;5108282;28;20039;-74
2021/09/04 05:26:24;;;;;;;11.18;9.20;;;;;;;20.87;53.04;102084.31;5112594;28;20031;-75
2021/09/04 05:28:49;;;;;;;11.38;8.90;;;;;;;20.84;53.05;102079.97;5099018;28;20023;-76
2021/09/04 05:31:15;;;;;;;9.93;8.23;;;;;;;20.88;52.95;102088.66;5079201;28;20020;-75
2021/09/04 05:33:40;;;;;;;11.27;8.02;;;;;;;20.90;52.87;102086.91;5085801;28;20397;-74
2021/09/04 05:36:08;;;;;;;10.95;9.15;;;;;;;20.91;53.43;102088.66;5112364;28;20036;-75
2021/09/04 05:38:35;;;;;;;11.00;8.90;;;;;;;20.89;52.99;102098.25;5136985;27;20023;-78
2021/09/04 05:41:00;;;;;;;12.50;8.35;;;;;;;20.87;53.05;102084.31;5120273;27;20038;-77
2021/09/04 05:43:26;;;;;;;12.48;8.30;;;;;;;20.88;54.05;102080.81;5133712;27;20027;-80
2021/09/04 05:45:51;;;;;;;11.77;8.68;;;;;;;20.98;54.70;102086.91;5083128;28;20059;-76
2021/09/04 05:48:16;;;;;;;40.53;13.02;;;;;;;21.06;54.98;102085.97;5082785;28;20092;-76
2021/09/04 05:50:42;;;;;;;37.72;12.73;;;;;;;21.11;54.32;102088.59;5116915;28;20024;-81
2021/09/04 05:53:07;;;;;;;37.70;13.57;;;;;;;21.11;54.41;102085.97;5099222;28;20122;-75
2021/09/04 05:55:32;;;;;;;43.47;15.10;;;;;;;21.12;54.47;102083.34;5116230;28;20063;-75
2021/09/04 05:57:58;;;;;;;54.95;19.05;;;;;;;21.12;54.39;102079.84;5137272;27;20027;-75
2021/09/04 06:00:23;;;;;;;32.75;13.70;;;;;;;21.13;54.03;102081.59;5119402;27;20034;-75
2021/09/04 06:02:48;;;;;;;43.47;15.32;;;;;;;21.12;54.31;102085.97;5102427;27;20031;-78
2021/09/04 06:05:14;;;;;;;31.65;14.45;;;;;;;21.11;54.27;102080.72;5119497;27;20019;-75
2021/09/04 06:07:39;;;;;;;40.60;15.98;;;;;;;21.11;53.65;102081.59;5137839;27;20483;-75
2021/09/04 06:10:05;;;;;;;32.25;15.50;;;;;;;21.12;53.64;102078.09;5136690;27;20030;-78
2021/09/04 06:12:31;;;;;;;33.00;14.48;;;;;;;21.13;53.71;102078.97;5119190;27;20027;-77
2021/09/04 06:14:56;;;;;;;23.63;12.23;;;;;;;21.14;53.21;102093.78;5119011;27;20043;-76
2021/09/04 06:17:21;;;;;;;24.73;12.57;;;;;;;21.12;53.23;102080.72;5115542;28;20042;-77
2021/09/04 06:19:47;;;;;;;19.85;11.82;;;;;;;21.13;52.58;102082.44;5115784;28;20546;-76
2021/09/04 06:22:12;;;;;;;20.98;12.00;;;;;;;21.13;52.77;102082.44;5115661;28;20065;-77
2021/09/04 06:24:49;;;;;;;23.40;11.60;;;;;;;21.13;52.75;102079.84;5550661;23;20126;31
2021/09/04 06:27:15;;;;;;;20.75;12.25;;;;;;;21.15;52.68;102083.31;5282281;23;20057;-76
2021/09/04 06:29:41;;;;;;;17.38;10.80;;;;;;;21.15;52.14;102085.06;5036887;28;20099;-79
2021/09/04 06:32:06;;;;;;;22.50;11.52;;;;;;;21.14;52.24;102094.69;4988813;28;20030;-77
2021/09/04 06:34:32;;;;;;;17.15;11.48;;;;;;;21.13;52.01;102092.06;5004235;28;20072;-77
2021/09/04 06:36:58;;;;;;;17.50;11.38;;;;;;;21.12;51.74;102090.31;5037094;28;20367;-77
2021/09/04 06:39:23;;;;;;;21.25;11.60;;;;;;;21.14;52.08;102089.44;5021047;28;20086;-78
2021/09/04 06:41:49;;;;;;;16.38;11.20;;;;;;;21.13;51.58;102098.16;5017863;28;20383;-77
2021/09/04 06:44:14;;;;;;;16.52;11.23;;;;;;;21.15;51.94;102096.41;5018201;28;20494;-77
2021/09/04 06:46:39;;;;;;;16.52;10.07;;;;;;;21.18;52.33;102103.38;5003169;28;20041;-76
2021/09/04 06:49:05;;;;;;;17.33;10.82;;;;;;;21.20;52.04;102098.13;5018722;28;20491;-78
2021/09/04 06:51:30;;;;;;;16.20;10.43;;;;;;;21.20;52.12;102099.00;5022862;28;20044;-77
2021/09/04 06:53:56;;;;;;;20.73;10.23;;;;;;;21.21;52.46;102097.25;5022432;28;20530;-77
2021/09/04 06:56:21;;;;;;;15.80;10.60;;;;;;;21.23;52.14;102100.72;4989165;28;20033;-77
2021/09/04 06:58:46;;;;;;;17.58;10.32;;;;;;;21.25;52.17;102104.22;5022564;28;20426;-78
2021/09/04 07:01:12;;;;;;;15.60;10.57;;;;;;;21.26;52.07;102109.44;5022550;28;20561;-77
2021/09/04 07:03:37;;;;;;;15.65;10.52;;;;;;;21.24;52.24;102105.97;5021469;28;20025;-77
2021/09/04 07:06:03;;;;;;;18.80;10.48;;;;;;;21.21;52.30;102111.22;5021593;28;20032;-77
2021/09/04 07:08:29;;;;;;;19.85;10.07;;;;;;;21.20;51.59;102106.84;5038409;28;20064;-77
2021/09/04 07:10:55;;;;;;;24.05;10.68;;;;;;;21.14;51.61;102112.09;5039003;28;20029;-77
2021/09/04 07:13:20;;;;;;;15.15;9.73;;;;;;;21.06;51.59;102106.94;5021418;28;20056;-77
2021/09/04 07:15:45;;;;;;;17.05;10.55;;;;;;;21.01;51.00;102100.81;5038059;28;20190;-76
2021/09/04 07:18:11;;;;;;;13.43;9.82;;;;;;;20.92;50.90;102093.00;5036982;28;20032;-75
2021/09/04 07:20:36;;;;;;;12.25;9.30;;;;;;;20.88;51.68;102100.03;4986526;28;20491;-76
2021/09/04 07:23:01;;;;;;;10.93;9.10;;;;;;;20.81;50.34;102095.66;5008443;28;20037;-76
2021/09/04 07:25:27;;;;;;;11.70;8.25;;;;;;;20.89;51.08;102103.50;5003522;28;20159;-76
2021/09/04 07:27:52;;;;;;;11.27;8.43;;;;;;;20.99;50.49;102099.09;5001124;28;20517;-76
2021/09/04 07:30:18;;;;;;;13.73;9.10;;;;;;;20.94;50.10;102101.72;5016808;28;20040;-76
2021/09/04 07:32:44;;;;;;;12.98;9.52;;;;;;;20.96;50.50;102102.59;5018725;28;20053;-78
2021/09/04 07:35:10;;;;;;;18.80;9.43;;;;;;;21.04;50.75;102102.56;5024859;28;20057;-77
2021/09/04 07:37:36;;;;;;;15.23;9.48;;;;;;;21.07;50.14;102095.56;5044990;28;20028;-75
2021/09/04 07:40:02;;;;;;;18.20;9.75;;;;;;;21.07;50.70;102098.19;5022569;28;20025;-76
2021/09/04 07:42:28;;;;;;;19.85;9.07;;;;;;;21.10;50.63;102103.41;5022758;28;20030;-77
2021/09/04 07:44:53;;;;;;;11.23;8.63;;;;;;;21.00;49.65;102099.09;5040526;28;20108;-76
2021/09/04 07:47:18;;;;;;;13.93;8.52;;;;;;;20.98;49.52;102106.06;5021867;28;20030;-75
2021/09/04 07:49:44;;;;;;;11.30;8.82;;;;;;;20.91;49.59;102106.97;5006136;28;20509;-77
2021/09/04 07:52:09;;;;;;;12.95;8.23;;;;;;;20.88;48.72;102110.47;5036882;28;20116;-76
2021/09/04 07:54:34;;;;;;;14.13;8.35;;;;;;;20.83;48.38;102103.50;5021193;28;20033;-76
2021/09/04 07:57:00;;;;;;;16.85;8.63;;;;;;;20.89;48.39;102108.72;5038009;28;20033;-77
2021/09/04 07:59:25;;;;;;;13.40;8.45;;;;;;;20.96;47.88;102111.31;5037739;28;20030;-76
2021/09/04 08:01:50;;;;;;;13.13;7.72;;;;;;;20.95;48.01;102117.44;5037843;28;20025;-75
2021/09/04 08:04:16;;;;;;;17.45;8.45;;;;;;;20.86;47.95;102114.84;5037606;28;20030;-76
2021/09/04 08:06:41;;;;;;;13.43;8.50;;;;;;;20.79;47.93;102110.50;5019717;28;20053;-76
2021/09/04 08:09:07;;;;;;;12.13;7.95;;;;;;;20.76;47.54;102115.75;5037175;28;20491;-75
2021/09/04 08:11:33;;;;;;;12.07;8.45;;;;;;;20.80;47.34;102114.00;5018663;28;20407;-75
2021/09/04 08:13:58;;;;;;;11.60;7.95;;;;;;;20.75;47.82;102114.88;5018733;28;20037;-76
2021/09/04 08:16:24;;;;;;;10.07;7.95;;;;;;;20.68;47.46;102114.88;5018624;28;20037;-76
2021/09/04 08:18:49;;;;;;;12.50;8.68;;;;;;;20.67;47.54;102121.88;5035213;28;20025;-76
2021/09/04 08:21:15;;;;;;;13.55;8.60;;;;;;;20.65;47.59;102123.59;5019283;28;20033;-75
2021/09/04 08:23:40;;;;;;;13.02;8.63;;;;;;;20.64;47.58;102127.09;5035327;28;20033;-75
2021/09/04 08:26:06;;;;;;;12.77;8.43;;;;;;;20.71;47.14;102127.97;5018291;28;20191;-76
2021/09/04 08:28:31;;;;;;;16.83;8.25;;;;;;;20.71;47.36;102126.22;5036597;28;20116;-75
2021/09/04 08:30:57;;;;;;;15.88;8.25;;;;;;;20.73;46.97;102134.03;5017974;28;20029;-77
2021/09/04 08:33:22;;;;;;;14.73;8.20;;;;;;;20.70;46.78;102120.97;5017287;28;20029;-76
2021/09/04 08:35:47;;;;;;;14.90;8.10;;;;;;;20.74;46.85;102120.97;5017535;28;20033;-76
2021/09/04 08:38:13;;;;;;;12.05;8.25;;;;;;;20.80;46.90;102116.63;5017694;28;20025;-76
2021/09/04 08:40:43;;;;;;;11.43;8.07;;;;;;;20.91;46.52;102117.44;5001634;28;20036;-76
2021/09/04 08:43:09;;;;;;;11.43;7.85;;;;;;;20.94;46.39;102126.13;5017682;28;20032;-76
2021/09/04 08:45:35;;;;;;;12.98;7.63;;;;;;;21.00;46.09;102122.66;5034586;28;20030;-76
2021/09/04 08:48:02;;;;;;;10.82;7.80;;;;;;;21.04;46.09;102113.03;5036414;28;20058;-76
2021/09/04 08:50:28;;;;;;;10.07;6.93;;;;;;;21.21;46.33;102108.59;5000849;28;20030;-75
2021/09/04 08:52:54;;;;;;;10.32;7.05;;;;;;;21.35;45.89;102109.41;5016967;28;20112;-76
2021/09/04 08:55:21;;;;;;;9.35;7.28;;;;;;;21.44;45.92;102113.75;5016618;28;20033;-76
2021/09/04 08:57:48;;;;;;;10.40;6.95;;;;;;;21.56;45.97;102113.69;5034064;28;20080;-76
2021/09/04 09:00:26;;;;;;;12.70;7.28;;;;;;;21.85;45.58;102111.75;5034083;28;20022;-75
2021/09/04 09:02:51;;;;;;;11.00;6.78;;;;;;;21.90;45.51;102113.44;5035296;28;20087;-76
2021/09/04 09:05:17;;;;;;;9.10;6.68;;;;;;;21.82;45.58;102119.63;5017664;28;20026;-76
2021/09/04 09:07:44;;;;;;;10.25;7.15;;;;;;;21.86;45.67;102116.09;5034567;28;20108;-76
2021/09/04 09:10:22;;;;;;;8.77;6.68;;;;;;;21.80;45.66;102113.53;5034159;28;20030;-76
2021/09/04 09:12:48;;;;;;;8.48;6.70;;;;;;;21.82;45.97;102111.75;5033442;28;20025;-76
2021/09/04 09:15:21;;;;;;;11.10;6.90;;;;;;;21.92;45.66;102116.91;5034767;28;20032;-76
2021/09/04 09:18:06;;;;;;;7.50;6.20;;;;;;;21.88;45.74;102109.09;5017909;28;20057;-76
2021/09/04 09:20:33;;;;;;;10.65;6.70;;;;;;;21.78;46.02;102109.16;5035888;28;20052;-76
2021/09/04 09:23:16;;;;;;;9.80;6.70;;;;;;;21.68;46.13;102106.63;5037563;28;20439;-76
2021/09/04 09:25:43;;;;;;;;;;;;;;;21.67;46.32;102103.13;5037333;28;20036;-77
2021/09/04 09:28:20;;;;;;;12.70;7.40;;;;;;;21.65;46.20;102099.66;5019817;28;20019;-77
2021/09/04 09:30:50;;;;;;;10.50;7.03;;;;;;;21.56;46.48;102102.34;5035430;28;20467;-76
2021/09/04 09:33:20;;;;;;;9.32;6.72;;;;;;;21.52;46.59;102103.25;5017389;28;20459;-75
2021/09/04 09:35:50;;;;;;;9.43;6.68;;;;;;;21.54;46.59;102094.50;5034168;28;20030;-76
2021/09/04 09:38:21;;;;;;;8.82;6.65;;;;;;;21.50;46.96;102094.53;5033542;28;20026;-74
2021/09/04 09:40:47;;;;;;;9.13;7.30;;;;;;;21.45;47.36;102093.66;5034752;28;20067;-76
2021/09/04 09:43:29;;;;;;;9.88;7.85;;;;;;;21.41;47.19;102090.22;5034989;28;20383;-76
2021/09/04 09:46:00;;;;;;;9.85;7.13;;;;;;;21.44;47.42;102095.41;5017232;28;20025;-76
2021/09/04 09:48:34;;;;;;;9.35;7.10;;;;;;;21.35;47.59;102098.91;5035507;28;20360;-76
2021/09/04 09:51:02;;;;;;;8.60;6.68;;;;;;;21.36;47.55;102097.16;5035277;28;20091;-76
2021/09/04 09:53:28;;;;;;;10.65;6.32;;;;;;;21.40;47.41;102101.50;5035851;28;20032;-76
2021/09/04 09:55:56;;;;;;;13.70;7.25;;;;;;;21.37;47.28;102101.53;5037072;28;20030;-77
2021/09/04 09:58:23;;;;;;;10.23;7.03;;;;;;;21.36;47.21;102099.78;5038023;28;20029;-76
2021/09/04 10:00:50;;;;;;;7.80;6.68;;;;;;;21.32;47.67;102098.09;5021403;28;20034;-76
2021/09/04 10:03:18;;;;;;;13.05;6.68;;;;;;;21.26;47.64;102104.22;5002520;28;20025;-75
2021/09/04 10:05:45;;;;;;;10.43;7.03;;;;;;;21.23;47.48;102104.25;5037548;28;20048;-75
2021/09/04 10:08:14;;;;;;;10.27;6.68;;;;;;;21.29;48.06;102103.31;5017242;28;20038;-75
2021/09/04 10:10:39;;;;;;;9.35;7.03;;;;;;;21.27;47.84;102100.69;5034407;28;20100;-75
2021/09/04 10:13:05;;;;;;;9.90;6.93;;;;;;;21.26;47.49;102103.34;5034239;28;20459;-75
2021/09/04 10:15:37;;;;;;;13.88;6.88;;;;;;;21.22;47.63;102101.63;5022588;28;20044;-77
2021/09/04 10:18:06;;;;;;;8.73;7.25;;;;;;;21.24;47.95;102105.09;5040428;28;20029;-76
2021/09/04 10:20:32;;;;;;;9.90;6.32;;;;;;;21.15;48.01;102092.94;5023079;28;20033;-78
2021/09/04 10:23:12;;;;;;;8.45;6.53;;;;;;;21.13;48.03;102095.53;5022646;28;20033;-76
2021/09/04 10:25:37;;;;;;;10.07;6.57;;;;;;;21.08;47.96;102099.94;5026825;28;20018;-76
2021/09/04 10:28:03;;;;;;;8.48;6.47;;;;;;;21.08;48.10;102105.19;5026896;28;20092;-76
2021/09/04 10:30:34;;;;;;;8.50;6.65;;;;;;;21.11;48.35;102104.28;5026118;28;20024;-77
2021/09/04 10:33:24;;;;;;;9.13;6.47;;;;;;;21.14;48.22;102099.03;5024552;28;20028;-77
2021/09/04 10:35:58;;;;;;;9.65;6.60;;;;;;;21.13;47.94;102098.16;5025487;28;20031;-77
2021/09/04 10:38:27;;;;;;;8.07;6.18;;;;;;;21.13;47.86;102099.91;5043132;28;20430;-77
2021/09/04 10:41:13;;;;;;;10.05;6.00;;;;;;;21.10;48.09;102098.19;5024614;28;20032;-77
2021/09/04 10:43:48;;;;;;;14.95;6.95;;;;;;;21.12;47.97;102095.53;5023666;28;20541;-76
2021/09/04 10:46:15;;;;;;;9.23;6.53;;;;;;;21.17;47.94;102088.56;5041508;28;20018;-76
2021/09/04 10:48:42;;;;;;;9.10;6.47;;;;;;;21.23;47.72;102092.88;5039873;28;20029;-77
2021/09/04 10:51:09;;;;;;;8.60;6.25;;;;;;;21.25;47.80;102092.00;5024134;28;20029;-76
2021/09/04 10:53:43;;;;;;;9.45;7.25;;;;;;;21.26;48.06;102092.88;5042421;28;20033;-76
2021/09/04 10:56:18;;;;;;;6.95;6.18;;;;;;;21.23;48.07;102093.78;5023817;28;20475;-76
2021/09/04 10:58:43;;;;;;;9.43;6.32;;;;;;;21.25;48.15;102080.66;5042065;28;20021;-76
2021/09/04 11:01:15;;;;;;;10.23;6.72;;;;;;;21.07;48.62;102082.47;5040653;28;20498;-76
2021/09/04 11:03:41;;;;;;;10.35;7.35;;;;;;;20.92;48.50;102075.56;5021459;28;20428;-76
2021/09/04 11:06:07;;;;;;;11.48;7.10;;;;;;;20.87;48.03;102084.31;5037085;28;20479;-76
2021/09/04 11:08:38;;;;;;;13.93;6.97;;;;;;;20.80;47.92;102086.09;5038994;28;20034;-76
2021/09/04 11:11:30;;;;;;;11.82;7.13;;;;;;;20.74;47.79;102084.34;5038917;28;20120;-77